Time;durP1;ratioP1;P1;durP2;ratioP2;P2;SDS_P1;SDS_P2;PMS_P1;PMS_P2;Temp;Humidity;BMP_temperature;BMP_pressure;BME280_temperature;BME280_humidity;BME280_pressure;Samples;Min_cycle;Max_cycle;Signal;HPM_P1;HPM_P2
2022/05/01 00:01:55;;;;;;;55.53;32.07;;;;;;;;;;5091420;28;20543;-82
2022/05/01 00:04:21;;;;;;;51.73;31.27;;;;;;;;;;5089711;28;20539;-81
2022/05/01 00:06:46;;;;;;;62.53;32.50;;;;;;;;;;5091474;28;20024;-79
2022/05/01 00:09:13;;;;;;;55.03;31.53;;;;;;;;;;5094186;28;20399;-79
2022/05/01 00:11:38;;;;;;;58.23;33.43;;;;;;;;;;5096410;28;20164;-81
2022/05/01 00:14:04;;;;;;;53.77;33.23;;;;;;;;;;5094993;28;20543;-82
2022/05/01 00:16:30;;;;;;;58.80;34.13;;;;;;;;;;5096484;28;20395;-81
2022/05/01 00:18:55;;;;;;;66.83;35.73;;;;;;;;;;5097287;28;20038;-81
2022/05/01 00:21:21;;;;;;;66.37;33.20;;;;;;;;;;5097304;28;20027;-81
2022/05/01 00:23:46;;;;;;;67.57;33.27;;;;;;;;;;5094814;28;20499;-81
2022/05/01 00:26:12;;;;;;;57.80;34.30;;;;;;;;;;5096950;28;20048;-82
2022/05/01 00:28:39;;;;;;;62.10;35.47;;;;;;;;;;5094925;28;20024;-80
2022/05/01 00:31:06;;;;;;;59.67;34.30;;;;;;;;;;5094905;28;20031;-81
2022/05/01 00:36:26;;;;;;;66.73;36.97;;;;;;;;;;5096165;28;20035;-80
2022/05/01 00:39:03;;;;;;;70.50;40.17;;;;;;;;;;5093995;28;20095;-82
2022/05/01 00:41:34;;;;;;;67.83;41.00;;;;;;;;;;5094111;28;20031;-80
2022/05/01 00:44:12;;;;;;;75.43;41.40;;;;;;;;;;5095856;28;20149;-81
2022/05/01 00:46:44;;;;;;;76.40;41.03;;;;;;;;;;5087430;28;20178;-81
2022/05/01 00:49:22;;;;;;;79.78;42.83;;;;;;;;;;5094659;28;20028;-81
2022/05/01 00:51:49;;;;;;;77.47;42.43;;;;;;;;;;5095926;28;20127;-80
2022/05/01 00:54:17;;;;;;;77.63;42.83;;;;;;;;;;5095302;28;20119;-82
2022/05/01 00:56:46;;;;;;;75.30;44.07;;;;;;;;;;5095334;28;20024;-81
2022/05/01 00:59:12;;;;;;;77.73;43.70;;;;;;;;;;5095466;28;20481;-81
2022/05/01 01:01:41;;;;;;;75.03;43.50;;;;;;;;;;5094336;28;20038;-81
2022/05/01 01:04:06;;;;;;;72.23;42.90;;;;;;;;;;5094157;28;20545;-81
2022/05/01 01:06:34;;;;;;;81.70;45.87;;;;;;;;;;5095194;28;20062;-81
2022/05/01 01:09:00;;;;;;;84.60;45.47;;;;;;;;;;5094589;28;20028;-80
2022/05/01 01:11:26;;;;;;;83.60;45.63;;;;;;;;;;5094062;28;20109;-81
2022/05/01 01:13:52;;;;;;;83.80;45.37;;;;;;;;;;5093273;28;20044;-80
2022/05/01 01:16:20;;;;;;;84.00;46.83;;;;;;;;;;5094652;28;20028;-81
2022/05/01 01:18:47;;;;;;;81.13;48.60;;;;;;;;;;5093072;28;20027;-80
2022/05/01 01:21:13;;;;;;;93.57;50.20;;;;;;;;;;5093109;28;20043;-79
2022/05/01 01:23:40;;;;;;;83.70;48.50;;;;;;;;;;5093061;28;20028;-79
2022/05/01 01:26:07;;;;;;;88.07;49.43;;;;;;;;;;5092999;28;20115;-80
2022/05/01 01:28:34;;;;;;;84.43;49.93;;;;;;;;;;5092591;28;20039;-80
2022/05/01 01:33:49;;;;;;;84.27;49.67;;;;;;;;;;5095881;28;20510;-80
2022/05/01 01:36:14;;;;;;;92.17;50.50;;;;;;;;;;5093618;28;20027;-81
2022/05/01 01:38:40;;;;;;;93.63;50.17;;;;;;;;;;5094861;28;20042;-80
2022/05/01 01:41:11;;;;;;;95.17;50.80;;;;;;;;;;5093228;28;20028;-80
2022/05/01 01:43:38;;;;;;;92.30;50.27;;;;;;;;;;5081145;28;20020;-80
2022/05/01 01:46:03;;;;;;;83.83;51.30;;;;;;;;;;5094902;28;20363;-80
2022/05/01 01:48:29;;;;;;;92.07;48.03;;;;;;;;;;5094982;28;20035;-82
2022/05/01 01:50:59;;;;;;;85.73;49.27;;;;;;;;;;5093348;28;20119;-82
2022/05/01 01:53:27;;;;;;;88.17;50.07;;;;;;;;;;5087378;28;20028;-80
2022/05/01 01:55:53;;;;;;;90.77;48.93;;;;;;;;;;5092900;28;20028;-80
2022/05/01 01:58:19;;;;;;;87.37;50.17;;;;;;;;;;5095331;28;20127;-79
2022/05/01 02:00:45;;;;;;;89.90;48.27;;;;;;;;;;5095057;28;20020;-79
2022/05/01 02:03:11;;;;;;;92.30;53.70;;;;;;;;;;5093786;28;20043;-81
2022/05/01 02:05:36;;;;;;;84.83;48.00;;;;;;;;;;5093828;28;20463;-80
2022/05/01 02:08:05;;;;;;;81.53;46.40;;;;;;;;;;5093622;28;20075;-82
2022/05/01 02:10:31;;;;;;;84.70;46.47;;;;;;;;;;5093193;28;20062;-82
2022/05/01 02:12:57;;;;;;;85.07;49.03;;;;;;;;;;5094320;28;20468;-81
2022/05/01 02:15:22;;;;;;;84.27;46.87;;;;;;;;;;5092722;28;20063;-80
2022/05/01 02:17:49;;;;;;;79.10;44.70;;;;;;;;;;5093030;28;20036;-80
2022/05/01 02:20:16;;;;;;;77.27;43.70;;;;;;;;;;5094574;28;20107;-79
2022/05/01 02:22:42;;;;;;;70.97;40.93;;;;;;;;;;5078858;28;20581;-81
2022/05/01 02:25:09;;;;;;;72.00;41.37;;;;;;;;;;5094156;28;20024;-81
2022/05/01 02:27:37;;;;;;;55.53;33.87;;;;;;;;;;5092374;28;20048;-81
2022/05/01 02:30:04;;;;;;;54.13;31.53;;;;;;;;;;5091759;28;20114;-81
2022/05/01 02:32:29;;;;;;;54.00;30.67;;;;;;;;;;5092935;28;20038;-80
2022/05/01 02:34:55;;;;;;;49.87;29.43;;;;;;;;;;5093243;28;20107;-81
2022/05/01 02:37:20;;;;;;;51.33;28.33;;;;;;;;;;5093252;28;20040;-81
2022/05/01 02:39:46;;;;;;;43.93;27.23;;;;;;;;;;5092715;28;20035;-81
2022/05/01 02:42:13;;;;;;;42.53;25.13;;;;;;;;;;5092074;28;20032;-80
2022/05/01 02:44:39;;;;;;;47.17;25.97;;;;;;;;;;5092705;28;20031;-82
2022/05/01 02:47:05;;;;;;;43.57;25.53;;;;;;;;;;5093079;28;20460;-80
2022/05/01 02:49:31;;;;;;;42.40;25.07;;;;;;;;;;5092269;28;20118;-81
2022/05/01 02:51:56;;;;;;;46.43;25.27;;;;;;;;;;5093448;28;20107;-81
2022/05/01 02:54:22;;;;;;;41.87;24.07;;;;;;;;;;5092224;28;20103;-81
2022/05/01 02:56:49;;;;;;;52.67;33.10;;;;;;;;;;5093506;28;20431;-79
2022/05/01 02:59:16;;;;;;;76.67;45.10;;;;;;;;;;5092213;28;20052;-81
2022/05/01 03:01:43;;;;;;;80.27;45.43;;;;;;;;;;5091909;28;20048;-81
2022/05/01 03:04:08;;;;;;;80.43;44.67;;;;;;;;;;5093273;28;20028;-80
2022/05/01 03:06:34;;;;;;;69.33;42.90;;;;;;;;;;5092167;28;20428;-80
2022/05/01 03:09:00;;;;;;;84.30;46.60;;;;;;;;;;5093999;28;20027;-81
2022/05/01 03:11:26;;;;;;;79.73;43.50;;;;;;;;;;5092177;28;20020;-81
2022/05/01 03:13:51;;;;;;;75.50;43.70;;;;;;;;;;5092661;28;20576;-81
2022/05/01 03:16:17;;;;;;;78.30;44.23;;;;;;;;;;5092380;28;20381;-81
2022/05/01 03:24:12;;;;;;;73.37;42.63;;;;;;;;;;5083802;28;20038;-81
2022/05/01 03:26:38;;;;;;;71.40;42.80;;;;;;;;;;5091276;28;20474;-80
2022/05/01 03:29:04;;;;;;;72.27;43.03;;;;;;;;;;5091968;28;20046;-80
2022/05/01 03:31:29;;;;;;;70.33;41.33;;;;;;;;;;5091538;28;20035;-80
2022/05/01 03:33:55;;;;;;;68.67;42.43;;;;;;;;;;5092643;28;20016;-81
2022/05/01 03:36:21;;;;;;;70.50;41.93;;;;;;;;;;5093059;28;20134;-81
2022/05/01 03:38:47;;;;;;;80.33;43.13;;;;;;;;;;5091340;28;20055;-80
2022/05/01 03:41:14;;;;;;;71.73;41.50;;;;;;;;;;5092538;28;20035;-80
2022/05/01 03:43:40;;;;;;;72.10;42.10;;;;;;;;;;5091678;28;20028;-80
2022/05/01 03:46:05;;;;;;;81.57;44.63;;;;;;;;;;5091269;28;20484;-82
2022/05/01 03:48:32;;;;;;;71.87;42.67;;;;;;;;;;5092583;28;20066;-80
2022/05/01 03:50:58;;;;;;;75.33;42.57;;;;;;;;;;5092032;28;20131;-80
2022/05/01 03:53:25;;;;;;;70.87;42.03;;;;;;;;;;5092444;28;20020;-80
2022/05/01 03:55:51;;;;;;;79.17;43.40;;;;;;;;;;5091627;28;20034;-81
2022/05/01 03:58:17;;;;;;;70.60;41.53;;;;;;;;;;5091065;28;20031;-80
2022/05/01 04:00:47;;;;;;;73.43;42.60;;;;;;;;;;5092127;28;20110;-80
2022/05/01 04:03:15;;;;;;;72.17;41.57;;;;;;;;;;5090957;28;20076;-80
2022/05/01 04:05:41;;;;;;;76.87;43.90;;;;;;;;;;5092339;28;20043;-81
2022/05/01 04:08:08;;;;;;;74.73;42.93;;;;;;;;;;5091204;28;20032;-81
2022/05/01 04:10:39;;;;;;;76.60;45.80;;;;;;;;;;5092100;28;20028;-81
2022/05/01 04:13:05;;;;;;;76.73;42.87;;;;;;;;;;5090591;28;20024;-80
2022/05/01 04:15:31;;;;;;;68.00;40.87;;;;;;;;;;5089841;28;20398;-84
2022/05/01 04:17:58;;;;;;;73.10;43.43;;;;;;;;;;5092144;28;20024;-80
2022/05/01 04:20:25;;;;;;;74.40;43.10;;;;;;;;;;5092129;28;20039;-80
2022/05/01 04:22:51;;;;;;;66.57;41.20;;;;;;;;;;5091918;28;20036;-79
2022/05/01 04:25:26;;;;;;;73.17;41.47;;;;;;;;;;5092715;28;20111;-79
2022/05/01 04:27:57;;;;;;;67.00;41.20;;;;;;;;;;5093282;28;20038;-80
2022/05/01 04:30:24;;;;;;;67.83;41.23;;;;;;;;;;5091218;28;20024;-82
2022/05/01 04:32:58;;;;;;;71.13;42.30;;;;;;;;;;5092478;28;20032;-80
2022/05/01 04:35:43;;;;;;;68.43;38.83;;;;;;;;;;5085937;28;20032;-80
2022/05/01 04:38:09;;;;;;;66.57;38.73;;;;;;;;;;5092687;28;20103;-80
2022/05/01 04:40:40;;;;;;;68.33;40.20;;;;;;;;;;5091321;28;20062;-80
2022/05/01 04:43:06;;;;;;;81.93;40.80;;;;;;;;;;5091074;28;20051;-80
2022/05/01 04:45:33;;;;;;;78.57;41.37;;;;;;;;;;5091940;28;20054;-81
2022/05/01 04:48:00;;;;;;;77.30;41.80;;;;;;;;;;5091860;28;20024;-79
2022/05/01 04:50:26;;;;;;;67.37;40.13;;;;;;;;;;5090720;28;20047;-80
2022/05/01 04:52:52;;;;;;;73.90;39.20;;;;;;;;;;5092782;28;20035;-80
2022/05/01 04:55:25;;;;;;;71.77;39.57;;;;;;;;;;5093515;28;20036;-80
2022/05/01 04:57:53;;;;;;;84.60;47.47;;;;;;;;;;5095853;28;20036;-80
2022/05/01 05:00:20;;;;;;;70.57;41.87;;;;;;;;;;5095099;28;20487;-80
2022/05/01 05:02:48;;;;;;;66.40;39.40;;;;;;;;;;5095409;28;20634;-81
2022/05/01 05:05:14;;;;;;;68.87;39.93;;;;;;;;;;5094820;28;20096;-79
2022/05/01 05:07:40;;;;;;;70.63;41.67;;;;;;;;;;5093598;28;20032;-81
2022/05/01 05:10:08;;;;;;;65.90;38.90;;;;;;;;;;5096042;28;20086;-81
2022/05/01 05:12:35;;;;;;;62.07;37.80;;;;;;;;;;5094659;28;20103;-81
2022/05/01 05:15:02;;;;;;;64.10;38.80;;;;;;;;;;5093911;28;20067;-81
2022/05/01 05:17:31;;;;;;;66.40;38.27;;;;;;;;;;5093348;28;20031;-81
2022/05/01 05:19:57;;;;;;;69.73;39.57;;;;;;;;;;5093992;28;20032;-81
2022/05/01 05:22:23;;;;;;;64.60;39.33;;;;;;;;;;5093576;28;20024;-81
2022/05/01 05:24:48;;;;;;;67.53;39.63;;;;;;;;;;5093922;28;20047;-81
2022/05/01 05:27:14;;;;;;;67.63;39.67;;;;;;;;;;5094733;28;20107;-77
2022/05/01 05:29:40;;;;;;;67.50;39.10;;;;;;;;;;5094356;28;20212;-80
2022/05/01 05:32:07;;;;;;;63.70;38.40;;;;;;;;;;5093429;28;20039;-81
2022/05/01 05:34:32;;;;;;;60.93;38.27;;;;;;;;;;5094636;28;20028;-81
2022/05/01 05:36:58;;;;;;;65.87;37.33;;;;;;;;;;5095097;28;20027;-81
2022/05/01 05:39:23;;;;;;;62.73;37.73;;;;;;;;;;5094393;28;20032;-80
2022/05/01 05:41:49;;;;;;;62.57;38.10;;;;;;;;;;5093538;28;20028;-81
2022/05/01 05:44:15;;;;;;;62.13;37.57;;;;;;;;;;5095097;28;20518;-80
2022/05/01 05:46:40;;;;;;;71.10;40.03;;;;;;;;;;5094061;28;20042;-80
2022/05/01 05:49:06;;;;;;;62.97;36.73;;;;;;;;;;5095382;28;20035;-80
2022/05/01 05:51:32;;;;;;;66.43;39.50;;;;;;;;;;5094386;28;20044;-81
2022/05/01 05:53:57;;;;;;;59.07;37.20;;;;;;;;;;5095764;28;20036;-82
2022/05/01 05:56:23;;;;;;;64.47;37.57;;;;;;;;;;5095280;28;20028;-82
2022/05/01 05:58:50;;;;;;;63.33;38.17;;;;;;;;;;5093009;28;20038;-81
2022/05/01 06:01:16;;;;;;;61.03;36.60;;;;;;;;;;5094480;28;20153;-81
2022/05/01 06:03:42;;;;;;;62.53;34.47;;;;;;;;;;5094527;28;20060;-82
2022/05/01 06:06:08;;;;;;;53.47;33.13;;;;;;;;;;5093655;28;20519;-81
2022/05/01 06:08:38;;;;;;;63.65;38.92;;;;;;;;;;5094322;28;20150;-81
2022/05/01 06:11:03;;;;;;;58.55;37.95;;;;;;;;;;5092775;28;20399;-80
2022/05/01 06:13:38;;;;;;;59.47;36.87;;;;;;;;;;5093652;28;20044;-80
2022/05/01 06:16:04;;;;;;;44.38;28.13;;;;;;;;;;5093482;28;20032;-81
2022/05/01 06:18:30;;;;;;;41.63;25.17;;;;;;;;;;5094263;28;20031;-80
2022/05/01 06:20:57;;;;;;;43.08;25.65;;;;;;;;;;5092879;28;20509;-81
2022/05/01 06:23:24;;;;;;;47.13;28.85;;;;;;;;;;5092763;28;20538;-81
2022/05/01 06:25:50;;;;;;;48.88;29.90;;;;;;;;;;5093135;28;20051;-81
2022/05/01 06:28:16;;;;;;;49.92;29.17;;;;;;;;;;5093812;28;20141;-80
2022/05/01 06:30:48;;;;;;;51.42;31.52;;;;;;;;;;5093914;28;20020;-82
2022/05/01 06:33:16;;;;;;;47.10;30.73;;;;;;;;;;5093085;28;20172;-81
2022/05/01 06:36:06;;;;;;;51.05;30.90;;;;;;;;;;5094476;28;20131;-81
2022/05/01 06:38:33;;;;;;;53.88;32.28;;;;;;;;;;5094616;28;20103;-79
2022/05/01 06:40:58;;;;;;;51.80;31.20;;;;;;;;;;5094620;28;20034;-79
2022/05/01 06:43:26;;;;;;;52.17;31.58;;;;;;;;;;5094415;28;20032;-82
2022/05/01 06:45:51;;;;;;;50.25;31.10;;;;;;;;;;5092143;28;20039;-81
2022/05/01 06:48:17;;;;;;;49.38;31.83;;;;;;;;;;5091729;28;20032;-80
2022/05/01 06:50:42;;;;;;;51.03;32.13;;;;;;;;;;5092097;28;20031;-81
2022/05/01 06:53:08;;;;;;;50.85;32.10;;;;;;;;;;5093628;28;20040;-81
2022/05/01 06:55:34;;;;;;;48.08;30.23;;;;;;;;;;5093684;28;20035;-81
2022/05/01 06:58:00;;;;;;;47.92;30.00;;;;;;;;;;5093061;28;20077;-81
2022/05/01 07:00:25;;;;;;;45.10;29.17;;;;;;;;;;5091913;28;20024;-80
2022/05/01 07:02:53;;;;;;;51.30;29.92;;;;;;;;;;5092191;28;20038;-81
2022/05/01 07:05:19;;;;;;;52.65;30.45;;;;;;;;;;5093008;28;20027;-80
2022/05/01 07:07:46;;;;;;;55.25;33.15;;;;;;;;;;5091942;28;20154;-80
2022/05/01 07:10:13;;;;;;;56.67;34.25;;;;;;;;;;5091915;28;20396;-81
2022/05/01 07:12:38;;;;;;;46.65;31.13;;;;;;;;;;5091379;28;20024;-81
2022/05/01 07:15:05;;;;;;;53.50;31.42;;;;;;;;;;5092798;28;20051;-80
2022/05/01 07:17:31;;;;;;;48.95;31.20;;;;;;;;;;5091306;28;20023;-81
2022/05/01 07:19:56;;;;;;;48.38;30.13;;;;;;;;;;5093942;28;20107;-83
2022/05/01 07:22:22;;;;;;;54.10;31.25;;;;;;;;;;5092235;28;20141;-80
2022/05/01 07:24:51;;;;;;;47.97;30.70;;;;;;;;;;5093683;28;20036;-80
2022/05/01 07:27:17;;;;;;;47.78;29.08;;;;;;;;;;5093698;28;20052;-80
2022/05/01 07:29:43;;;;;;;43.53;29.52;;;;;;;;;;5093541;28;20462;-81
2022/05/01 07:32:09;;;;;;;47.90;30.92;;;;;;;;;;5093043;28;20023;-80
2022/05/01 07:34:35;;;;;;;49.25;30.48;;;;;;;;;;5091163;28;20343;-82
2022/05/01 07:37:01;;;;;;;44.42;28.92;;;;;;;;;;5093354;28;20077;-81
2022/05/01 07:39:26;;;;;;;45.15;28.58;;;;;;;;;;5092518;28;20019;-83
2022/05/01 07:41:55;;;;;;;42.42;27.45;;;;;;;;;;5091843;28;20028;-80
2022/05/01 07:44:20;;;;;;;44.25;28.40;;;;;;;;;;5091294;28;20034;-80
2022/05/01 07:46:46;;;;;;;43.00;27.77;;;;;;;;;;5092928;28;20032;-81
2022/05/01 07:49:12;;;;;;;42.58;25.75;;;;;;;;;;5091604;28;20609;-81
2022/05/01 07:51:38;;;;;;;45.65;28.33;;;;;;;;;;5091407;28;20081;-81
2022/05/01 07:54:05;;;;;;;41.60;25.67;;;;;;;;;;5093537;28;20028;-79
2022/05/01 07:56:32;;;;;;;36.47;22.20;;;;;;;;;;5093161;28;20079;-80
2022/05/01 07:59:04;;;;;;;38.28;24.20;;;;;;;;;;5091805;28;20032;-81
2022/05/01 08:01:30;;;;;;;37.17;24.35;;;;;;;;;;5093201;28;20027;-81
2022/05/01 08:06:40;;;;;;;30.95;20.77;;;;;;;;;;5094081;28;20110;-81
2022/05/01 08:09:09;;;;;;;27.73;16.15;;;;;;;;;;5092768;28;20047;-79
2022/05/01 08:11:38;;;;;;;25.05;15.45;;;;;;;;;;5092639;28;20028;-80
2022/05/01 08:14:04;;;;;;;26.63;14.75;;;;;;;;;;5091092;28;20044;-81
2022/05/01 08:16:29;;;;;;;30.05;15.50;;;;;;;;;;5091784;28;20032;-82
2022/05/01 08:21:39;;;;;;;29.40;16.17;;;;;;;;;;5087095;28;20049;-81
2022/05/01 08:24:05;;;;;;;24.48;14.73;;;;;;;;;;5091378;28;20024;-80
2022/05/01 08:26:34;;;;;;;23.48;13.98;;;;;;;;;;5092347;28;20020;-80
2022/05/01 08:29:00;;;;;;;24.08;13.55;;;;;;;;;;5092964;28;20472;-81
2022/05/01 08:31:26;;;;;;;22.73;13.00;;;;;;;;;;5097110;28;20035;-82
2022/05/01 08:34:17;;;;;;;23.63;13.85;;;;;;;;;;5097148;28;20068;-79
2022/05/01 08:36:42;;;;;;;20.80;14.57;;;;;;;;;;5097045;28;20035;-83
2022/05/01 08:39:09;;;;;;;24.33;12.80;;;;;;;;;;5096276;28;20100;-82
2022/05/01 08:41:34;;;;;;;19.92;12.65;;;;;;;;;;5094400;28;20081;-80
2022/05/01 08:44:01;;;;;;;25.95;12.70;;;;;;;;;;5094526;28;20550;-79
2022/05/01 08:46:55;;;;;;;18.65;13.13;;;;;;;;;;5095528;28;20058;-82
2022/05/01 08:49:22;;;;;;;25.08;13.55;;;;;;;;;;5090619;28;20035;-81
2022/05/01 08:51:48;;;;;;;21.67;12.77;;;;;;;;;;5094936;28;20063;-80
2022/05/01 08:54:18;;;;;;;22.45;12.88;;;;;;;;;;5093850;28;20032;-81
2022/05/01 08:56:45;;;;;;;21.90;12.38;;;;;;;;;;5093850;28;20085;-79
2022/05/01 08:59:14;;;;;;;17.52;11.27;;;;;;;;;;5094311;28;20088;-81
2022/05/01 09:01:41;;;;;;;18.08;9.68;;;;;;;;;;5074002;28;20040;-79
2022/05/01 09:04:08;;;;;;;21.15;11.68;;;;;;;;;;5089794;28;20524;-81
2022/05/01 09:06:35;;;;;;;18.90;9.95;;;;;;;;;;5095415;28;20081;-82
2022/05/01 09:09:22;;;;;;;17.92;9.90;;;;;;;;;;5076310;28;20032;-82
2022/05/01 09:14:36;;;;;;;16.73;9.85;;;;;;;;;;5090486;28;20645;-80
2022/05/01 09:17:28;;;;;;;17.88;9.05;;;;;;;;;;5094999;28;20035;-81
2022/05/01 09:20:23;;;;;;;17.70;8.88;;;;;;;;;;5095313;28;20452;-82
2022/05/01 09:22:51;;;;;;;14.43;8.75;;;;;;;;;;5063083;28;20047;-80
2022/05/01 09:25:22;;;;;;;17.60;8.15;;;;;;;;;;5091649;28;20566;-79
2022/05/01 09:30:38;;;;;;;17.88;8.02;;;;;;;;;;5087865;28;20028;-82
2022/05/01 09:33:04;;;;;;;12.88;7.60;;;;;;;;;;5093679;28;20069;-81
2022/05/01 09:35:35;;;;;;;19.85;8.48;;;;;;;;;;5093440;28;20020;-80
2022/05/01 09:38:16;;;;;;;23.65;9.27;;;;;;;;;;5093779;28;20039;-82
2022/05/01 09:40:54;;;;;;;14.35;7.82;;;;;;;;;;5093066;28;20426;-81
2022/05/01 09:43:32;;;;;;;16.33;9.15;;;;;;;;;;5095431;28;20111;-81
2022/05/01 09:46:25;;;;;;;17.83;9.52;;;;;;;;;;5095606;28;20095;-80
2022/05/01 09:49:03;;;;;;;16.27;8.55;;;;;;;;;;5089265;28;20040;-81
2022/05/01 09:51:30;;;;;;;12.70;8.07;;;;;;;;;;5093463;28;20032;-81
2022/05/01 09:53:58;;;;;;;11.75;7.93;;;;;;;;;;5093742;28;20039;-80
2022/05/01 09:56:24;;;;;;;13.43;8.85;;;;;;;;;;5094216;28;20024;-81
2022/05/01 09:59:02;;;;;;;15.52;8.85;;;;;;;;;;5092786;28;20120;-81
2022/05/01 10:01:29;;;;;;;13.80;8.20;;;;;;;;;;5076171;28;20104;-82
2022/05/01 10:03:56;;;;;;;13.60;8.32;;;;;;;;;;5093116;28;20050;-81
2022/05/01 10:06:21;;;;;;;17.67;8.93;;;;;;;;;;5093178;28;20235;-81
2022/05/01 10:08:47;;;;;;;18.00;9.77;;;;;;;;;;5092624;28;20028;-79
2022/05/01 10:11:16;;;;;;;14.73;7.28;;;;;;;;;;5091835;28;20039;-81
2022/05/01 10:13:44;;;;;;;13.48;7.03;;;;;;;;;;5094204;28;20517;-80
2022/05/01 10:16:11;;;;;;;14.23;7.43;;;;;;;;;;5095023;28;20036;-80
2022/05/01 10:18:38;;;;;;;11.65;6.57;;;;;;;;;;5092643;28;20035;-81
2022/05/01 10:21:05;;;;;;;13.68;6.82;;;;;;;;;;5088304;28;20066;-81
2022/05/01 10:23:32;;;;;;;11.80;7.43;;;;;;;;;;5087236;28;20028;-80
2022/05/01 10:26:19;;;;;;;13.55;7.07;;;;;;;;;;5094773;28;20032;-81
2022/05/01 10:28:50;;;;;;;16.58;8.00;;;;;;;;;;5076376;28;20032;-82
2022/05/01 10:34:29;;;;;;;15.82;7.50;;;;;;;;;;5094626;28;20794;-81
2022/05/01 10:37:27;;;;;;;11.88;7.50;;;;;;;;;;5086113;28;20024;-81
2022/05/01 10:39:53;;;;;;;13.60;7.10;;;;;;;;;;5096130;28;20111;-79
2022/05/01 10:42:43;;;;;;;13.30;8.05;;;;;;;;;;5094277;28;20502;-80
2022/05/01 10:45:27;;;;;;;15.70;8.98;;;;;;;;;;5095566;28;20032;-80
2022/05/01 10:47:57;;;;;;;17.83;9.52;;;;;;;;;;5094780;28;20570;-81
2022/05/01 10:50:25;;;;;;;13.37;7.63;;;;;;;;;;5094485;28;20028;-79
2022/05/01 10:53:14;;;;;;;12.32;8.23;;;;;;;;;;5092510;28;20339;-81
2022/05/01 10:55:48;;;;;;;12.75;7.90;;;;;;;;;;5075055;28;20028;-82
2022/05/01 10:58:22;;;;;;;17.17;8.52;;;;;;;;;;5095224;28;20024;-82
2022/05/01 11:00:50;;;;;;;17.17;8.85;;;;;;;;;;5094409;28;20024;-81
2022/05/01 11:03:29;;;;;;;14.75;8.90;;;;;;;;;;5093201;28;20020;-81
2022/05/01 11:06:04;;;;;;;15.35;9.23;;;;;;;;;;5095052;28;20040;-82
2022/05/01 11:08:40;;;;;;;15.88;9.40;;;;;;;;;;5095147;28;20460;-80
2022/05/01 11:11:11;;;;;;;16.83;9.77;;;;;;;;;;5093706;28;20384;-81
2022/05/01 11:13:40;;;;;;;16.92;10.00;;;;;;;;;;5092990;28;20055;-80
2022/05/01 11:16:10;;;;;;;18.13;10.07;;;;;;;;;;5073247;28;20032;-81
2022/05/01 11:18:53;;;;;;;22.25;10.82;;;;;;;;;;5074945;28;20031;-80
2022/05/01 11:21:24;;;;;;;15.70;10.27;;;;;;;;;;5094881;28;20416;-80
2022/05/01 11:24:02;;;;;;;;;;;;;;;;;;5088819;28;20042;-80
2022/05/01 11:26:29;;;;;;;22.88;9.40;;;;;;;;;;5092566;28;20381;-79
2022/05/01 11:29:11;;;;;;;17.58;8.93;;;;;;;;;;5094827;28;20348;-80
2022/05/01 11:31:36;;;;;;;14.50;8.48;;;;;;;;;;5092783;28;20028;-80
2022/05/01 11:34:21;;;;;;;13.18;8.82;;;;;;;;;;5093200;28;20119;-81
2022/05/01 11:37:09;;;;;;;17.20;8.90;;;;;;;;;;5087609;28;20031;-79
2022/05/01 11:39:43;;;;;;;14.73;9.23;;;;;;;;;;5083178;28;20028;-80
2022/05/01 11:42:35;;;;;;;14.38;9.48;;;;;;;;;;5095018;28;20020;-79
2022/05/01 11:45:03;;;;;;;17.70;9.18;;;;;;;;;;5094333;28;20383;-82
2022/05/01 11:47:34;;;;;;;15.60;9.43;;;;;;;;;;5093925;28;20025;-81
2022/05/01 11:50:00;;;;;;;;;;;;;;;;;;5094226;28;20054;-80
2022/05/01 11:52:26;;;;;;;17.40;9.30;;;;;;;;;;5093809;28;20002;-81
2022/05/01 11:54:58;;;;;;;20.98;10.07;;;;;;;;;;5092610;28;20549;-81
2022/05/01 12:03:11;;;;;;;14.80;9.02;;;;;;;;;;5093219;28;20059;-81
2022/05/01 12:05:49;;;;;;;15.65;8.27;;;;;;;;;;5074813;28;20101;-81
2022/05/01 12:08:19;;;;;;;17.20;9.60;;;;;;;;;;5092182;28;20066;-81
2022/05/01 12:10:46;;;;;;;14.50;10.30;;;;;;;;;;5092323;28;20034;-82
2022/05/01 12:13:19;;;;;;;12.40;8.38;;;;;;;;;;5093003;28;20028;-79
2022/05/01 12:15:44;;;;;;;14.75;8.50;;;;;;;;;;5092276;28;20115;-78
2022/05/01 12:18:10;;;;;;;15.70;8.73;;;;;;;;;;5093778;28;20697;-81
2022/05/01 12:20:36;;;;;;;15.50;8.68;;;;;;;;;;5091522;28;20377;-80
2022/05/01 12:23:04;;;;;;;13.52;8.43;;;;;;;;;;5092429;28;20203;-76
2022/05/01 12:25:31;;;;;;;12.77;8.68;;;;;;;;;;5093168;28;20119;-80
2022/05/01 12:27:57;;;;;;;13.70;7.72;;;;;;;;;;5093140;28;20427;-80
2022/05/01 12:30:26;;;;;;;12.40;7.38;;;;;;;;;;5093146;28;20052;-81
2022/05/01 12:32:54;;;;;;;13.05;7.53;;;;;;;;;;5093327;28;20040;-79
2022/05/01 12:35:19;;;;;;;12.07;6.80;;;;;;;;;;5092868;28;20032;-80
2022/05/01 12:37:48;;;;;;;12.30;7.47;;;;;;;;;;5092782;28;20035;-80
2022/05/01 12:45:54;;;;;;;10.93;6.95;;;;;;;;;;5093172;28;20074;-79
2022/05/01 12:48:21;;;;;;;13.98;7.57;;;;;;;;;;5091638;28;20024;-80
2022/05/01 12:50:51;;;;;;;10.90;7.18;;;;;;;;;;5093309;28;20036;-80
2022/05/01 12:53:30;;;;;;;9.98;7.03;;;;;;;;;;5092082;28;20024;-79
2022/05/01 12:55:57;;;;;;;10.73;6.45;;;;;;;;;;5086399;28;20032;-81
2022/05/01 12:58:33;;;;;;;11.52;6.85;;;;;;;;;;5093136;28;20021;-80
2022/05/01 13:01:02;;;;;;;15.98;7.40;;;;;;;;;;5092326;28;20452;-80
2022/05/01 13:03:39;;;;;;;15.00;7.60;;;;;;;;;;5092535;28;20099;-83
2022/05/01 13:06:11;;;;;;;17.30;7.18;;;;;;;;;;5092108;28;20024;-81
2022/05/01 13:08:38;;;;;;;10.15;7.28;;;;;;;;;;5091518;28;20035;-80
2022/05/01 13:11:18;;;;;;;19.80;7.60;;;;;;;;;;5090970;28;20031;-80
2022/05/01 13:14:01;;;;;;;11.02;7.25;;;;;;;;;;5090576;28;20131;-81
2022/05/01 13:16:30;;;;;;;9.70;6.45;;;;;;;;;;5096782;28;20035;-81
2022/05/01 13:18:58;;;;;;;8.90;5.97;;;;;;;;;;5096297;28;20028;-79
2022/05/01 13:21:27;;;;;;;8.68;6.15;;;;;;;;;;5097365;28;20376;-81
2022/05/01 13:23:57;;;;;;;7.97;5.72;;;;;;;;;;5096929;28;20395;-82
2022/05/01 13:26:22;;;;;;;9.20;5.60;;;;;;;;;;5074597;28;20047;-80
2022/05/01 13:28:48;;;;;;;9.05;6.25;;;;;;;;;;5085689;28;20032;-80
2022/05/01 13:31:17;;;;;;;11.27;6.63;;;;;;;;;;5097477;28;20026;-81
2022/05/01 13:33:42;;;;;;;10.57;6.07;;;;;;;;;;5094963;28;20027;-83
2022/05/01 13:36:08;;;;;;;12.25;6.55;;;;;;;;;;5096917;28;20030;-82
2022/05/01 13:38:41;;;;;;;8.52;5.82;;;;;;;;;;5095068;28;20028;-79
2022/05/01 13:46:40;;;;;;;10.43;6.03;;;;;;;;;;5092870;28;20089;-80
2022/05/01 13:49:08;;;;;;;9.27;5.43;;;;;;;;;;5095874;28;20040;-80
2022/05/01 13:51:34;;;;;;;8.73;5.68;;;;;;;;;;5095768;28;20635;-82
2022/05/01 13:54:05;;;;;;;8.73;5.60;;;;;;;;;;5094849;28;20105;-81
2022/05/01 13:56:33;;;;;;;8.63;5.32;;;;;;;;;;5095731;28;20074;-80
2022/05/01 13:58:59;;;;;;;6.32;5.13;;;;;;;;;;5095307;28;20412;-80
2022/05/01 14:01:25;;;;;;;9.85;6.05;;;;;;;;;;5095753;28;20062;-80
2022/05/01 14:03:51;;;;;;;8.77;4.80;;;;;;;;;;5095615;28;20060;-80
2022/05/01 14:06:16;;;;;;;7.80;5.75;;;;;;;;;;5095021;28;20616;-79
2022/05/01 14:08:43;;;;;;;7.88;5.07;;;;;;;;;;5095417;28;20036;-82
2022/05/01 14:11:08;;;;;;;10.95;5.15;;;;;;;;;;5093529;28;20081;-81
2022/05/01 14:13:34;;;;;;;11.93;5.00;;;;;;;;;;5095617;28;20454;-78
2022/05/01 14:16:01;;;;;;;7.78;5.32;;;;;;;;;;5096039;28;20329;-80
2022/05/01 14:18:32;;;;;;;7.85;5.20;;;;;;;;;;5095325;28;20054;-80
2022/05/01 14:20:58;;;;;;;10.63;4.82;;;;;;;;;;5090042;28;20039;-82
2022/05/01 14:23:28;;;;;;;6.57;5.35;;;;;;;;;;5090980;28;20115;-83
2022/05/01 14:25:53;;;;;;;9.95;4.78;;;;;;;;;;5094650;28;20032;-83
2022/05/01 14:28:19;;;;;;;6.40;4.25;;;;;;;;;;5095017;28;20032;-81
2022/05/01 14:30:54;;;;;;;8.02;5.38;;;;;;;;;;5094291;28;20033;-79
2022/05/01 14:33:42;;;;;;;5.47;4.28;;;;;;;;;;5094595;28;20030;-79
2022/05/01 14:36:08;;;;;;;9.40;5.43;;;;;;;;;;5087788;28;20096;-80
2022/05/01 14:38:43;;;;;;;8.32;5.70;;;;;;;;;;5093585;28;20028;-79
2022/05/01 14:41:09;;;;;;;8.20;5.00;;;;;;;;;;5094650;28;20103;-80
2022/05/01 14:43:39;;;;;;;5.93;4.60;;;;;;;;;;5092742;28;20059;-80
2022/05/01 14:46:08;;;;;;;15.05;6.05;;;;;;;;;;5091500;28;20035;-81
2022/05/01 14:48:55;;;;;;;9.85;5.55;;;;;;;;;;5092534;28;20032;-81
2022/05/01 14:51:22;;;;;;;11.18;5.90;;;;;;;;;;5091469;28;20089;-80
2022/05/01 14:53:50;;;;;;;9.82;5.55;;;;;;;;;;5091563;28;20027;-80
2022/05/01 14:56:19;;;;;;;7.82;5.35;;;;;;;;;;5091763;28;20038;-79
2022/05/01 15:07:02;;;;;;;13.48;5.25;;;;;;;;;;5086910;28;20119;-81
2022/05/01 15:09:30;;;;;;;6.40;4.53;;;;;;;;;;5091983;28;20030;-79
2022/05/01 15:11:56;;;;;;;9.63;4.97;;;;;;;;;;5091169;28;20031;-80
2022/05/01 15:14:21;;;;;;;9.02;5.38;;;;;;;;;;5092484;28;20048;-81
2022/05/01 15:16:55;;;;;;;8.57;5.13;;;;;;;;;;5091177;28;20503;-81
2022/05/01 15:19:43;;;;;;;7.95;5.10;;;;;;;;;;5091200;28;20421;-80
2022/05/01 15:22:38;;;;;;;7.32;4.63;;;;;;;;;;5086619;28;20537;-80
2022/05/01 15:25:10;;;;;;;6.40;3.85;;;;;;;;;;5072338;28;20032;-80